Weather observations for the past three days for
Sault Ste Marie, Chippewa County International Airport
Metric (Imperial)
Date Time (edt) Wind (kph) Vis. (km) Weather Sky Cond. Temperature (ºC) Relative Humidity Wind Chill (°C) Heat Index (°C) Pressure Precipitation (cm)
Air Dwpt 6 hour altimeter (cm) sea level (mb) 1 hr 3 hr 6 hr
Max. Min.
05 18:56 N 19 16.09 Fair CLR 21.7 12.2 55% 76.43 1018.7
05 17:56 N 17 16.09 Fair CLR 23.3 12.2 50% 76.38 1017.9
05 16:56 NW 13 16.09 Fair CLR 24.4 11.7 45% 26 76.38 1017.8
05 15:56 N 20 16.09 Fair CLR 24.4 10.6 42% 25 76.35 1017.6
05 13:56 NE 11 16.09 Fair CLR 23.9 11.7 23.9 15 46% 25 76.43 1018.6
05 12:56 N 9 16.09 Fair CLR 22.8 11.7 50% 76.48 1019.2
05 11:56 NE 15 16.09 Fair CLR 22.2 11.7 52% 76.48 1019.1
05 10:56 NE 15 16.09 Fair CLR 21.1 12.8 59% 76.43 1018.8
05 09:56 E 13 16.09 Fair CLR 19.4 13.3 68% 76.43 1018.6
05 08:56 E 15 16.09 Fair CLR 16.7 13.9 84% 76.4 1018.6
05 07:56 NE 11 16.09 Fair CLR 15 13.3 15 12.8 90% 76.38 1018.2
05 06:56 NE 9 16.09 Fair CLR 13.3 12.2 93% 76.35 1017.9
05 05:56 N 6 16.09 Fair CLR 13.3 12.2 93% 76.35 1017.6
05 04:56 N 7 16.09 Fair CLR 14.4 13.9 97% 76.33 1017.3
05 03:56 N 6 16.09 Fair CLR 14.4 13.9 97% 76.3 1017.2
05 02:56 N 6 16.09 Fair CLR 14.4 14.4 100% 76.3 1017.0
05 01:56 Calm 16.09 Fair CLR 15 14.4 19.4 15 96% 76.3 1017.0
05 00:56 Calm 16.09 Fair CLR 15.6 14.4 93% 76.3 1016.9
04 23:56 Calm 16.09 Fair CLR 15.6 14.4 93% 76.3 1017.1
04 22:56 Calm 16.09 Fair CLR 15.6 14.4 93% 76.3 1017.3
04 20:56 Calm 16.09 Overcast BKN100 OVC120 18.3 14.4 78% 76.3 1017.0
04 18:56 NE 9 16.09 Overcast OVC075 20 15 73% 76.25 1016.5
04 14:56 SE 15 16.09 Overcast OVC080 21.1 15.6 71% 76.25 1016.3
04 10:56 SE 11 16.09 Overcast BKN065 OVC110 17.8 15 84% 76.33 1017.4
04 09:56 E 7 16.09 Overcast OVC100 16.7 14.4 86% 76.28 1016.8
04 08:56 E 15 16.09 Mostly Cloudy BKN110 16.1 14.4 90% 76.25 1016.4
04 07:56 E 19 16.09 Partly Cloudy SCT120 16.1 14.4 16.1 14.4 90% 76.23 1015.8
04 06:56 SE 6 16.09 Fair CLR 15 13.9 93% 76.23 1016.0
04 05:56 E 6 16.09 Fair CLR 15.6 13.9 90% 76.25 1016.1
04 04:56 E 11 16.09 Fair CLR 14.4 13.9 97% 76.2 1015.4
04 03:56 E 7 16.09 Fair CLR 14.4 13.9 97% 76.2 1015.6
04 02:56 NE 6 16.09 Fair CLR 14.4 13.9 97% 76.2 1015.5
04 01:56 Calm 16.09 Fair CLR 15 15 20 14.4 100% 76.23 1016.0
04 00:56 Calm 16.09 Fair CLR 15 14.4 96% 76.23 1015.8
03 23:56 W 7 16.09 Fair CLR 15 14.4 96% 76.23 1016.0
03 22:56 N 6 16.09 Fair CLR 15.6 14.4 93% 76.17 1015.4
03 21:56 NW 7 16.09 Fair CLR 16.1 14.4 90% 76.2 1015.7
03 20:56 NW 9 16.09 Fair CLR 17.2 13.3 78% 76.15 1015.0
03 19:56 NW 11 16.09 Fair CLR 20 13.9 23.9 20 68% 76.12 1014.6
03 18:56 N 13 16.09 Fair CLR 22.8 13.9 57% 76.07 1014.0
03 17:56 N 11 16.09 Fair CLR 23.9 13.9 54% 25 76.07 1013.7
03 16:56 NW 11 16.09 Mostly Cloudy BKN045 23.3 13.9 56% 76.1 1014.2
03 15:56 N 11 16.09 Fair CLR 23.3 13.3 54% 76.15 1014.8
03 14:56 N 15 16.09 Fair CLR 23.3 13.9 56% 76.2 1015.7
03 13:56 NW 19 16.09 Fair CLR 22.8 13.3 23.9 13.9 55% 76.17 1015.1
03 12:56 N 15 16.09 Fair CLR 22.8 13.3 55% 76.12 1014.6
03 11:56 N 15 16.09 Fair CLR 23.3 14.4 57% 76.15 1014.7
03 10:56 N 11 16.09 Fair CLR 21.1 15 68% 76.17 1015.1
03 09:56 N 9 16.09 Fair CLR 19.4 15 76% 76.15 1015.1
03 08:56 NW 6 16.09 A Few Clouds FEW065 17.2 15.6 90% 76.15 1015.2
03 07:56 W 6 16.09 Fair CLR 13.9 13.9 14.4 12.8 100% 76.15 1015.0
03 06:56 W 6 4.83 Fog/Mist CLR 13.3 13.3 100% 76.12 1014.6
03 05:56 W 6 14.48 Mostly Cloudy BKN070 13.3 13.3 100% 76.12 1014.4
03 04:56 W 7 11.27 Partly Cloudy SCT075 13.9 13.9 100% 76.12 1014.3
03 03:56 W 6 16.09 A Few Clouds FEW065 13.9 13.9 100% 76.1 1014.0
03 02:56 Calm 11.27 A Few Clouds FEW075 13.9 13.9 100% 76.07 1013.8
03 01:56 W 7 16.09 A Few Clouds FEW060 16.1 15 20 15.6 93% 76.07 1013.8
03 00:56 NW 9 16.09 Partly Cloudy SCT065 16.1 15.6 97% 76.05 1013.5
02 23:56 NW 6 16.09 Overcast OVC050 16.7 15.6 93% 76.02 1013.5
02 22:56 N 6 16.09 Partly Cloudy SCT055 16.7 15.6 93% 76.02 1013.4
02 21:56 NW 7 16.09 Fair CLR 17.2 15 87% 76.02 1013.4
02 20:56 Calm 16.09 Fair CLR 17.2 15 87% 76 1013.1
02 19:56 NW 9 16.09 NULL NULL 20 15 26.7 20 73% 76 1012.8
Date Time (edt) Wind (kph) Vis. (km) Weather Sky Cond. Air Dwpt Max. Min. Relative Humidity Wind Chill (°C) Heat Index (°C) altimeter (cm) sea level (mb) 1 hr 3 hr 6 hr
6 hour
Temperature (ºC) Pressure Precipitation (cm)